sensor_id;sensor_type;location;lat;lon;timestamp;P1;durP1;ratioP1;P2;durP2;ratioP2
56629;SDS011;42502;40.732;-74.254;2023-04-25T00:00:03;4.10;;;0.65;;
56629;SDS011;42502;40.732;-74.254;2023-04-25T00:02:07;3.13;;;0.77;;
56629;SDS011;42502;40.732;-74.254;2023-04-25T00:04:10;2.13;;;0.60;;
56629;SDS011;42502;40.732;-74.254;2023-04-25T00:06:11;5.72;;;0.70;;
56629;SDS011;42502;40.732;-74.254;2023-04-25T00:08:13;4.32;;;0.68;;
56629;SDS011;42502;40.732;-74.254;2023-04-25T00:10:14;6.68;;;0.70;;
56629;SDS011;42502;40.732;-74.254;2023-04-25T00:12:18;6.40;;;0.68;;
56629;SDS011;42502;40.732;-74.254;2023-04-25T00:14:19;2.55;;;0.63;;
56629;SDS011;42502;40.732;-74.254;2023-04-25T00:16:19;3.70;;;0.90;;
56629;SDS011;42502;40.732;-74.254;2023-04-25T00:18:20;3.60;;;0.70;;
56629;SDS011;42502;40.732;-74.254;2023-04-25T00:20:21;6.57;;;0.65;;
56629;SDS011;42502;40.732;-74.254;2023-04-25T00:22:23;6.40;;;0.70;;
56629;SDS011;42502;40.732;-74.254;2023-04-25T00:24:24;6.60;;;0.60;;
56629;SDS011;42502;40.732;-74.254;2023-04-25T00:26:25;4.55;;;0.65;;
56629;SDS011;42502;40.732;-74.254;2023-04-25T00:28:26;7.93;;;0.60;;
56629;SDS011;42502;40.732;-74.254;2023-04-25T00:30:27;3.33;;;0.60;;
56629;SDS011;42502;40.732;-74.254;2023-04-25T00:32:27;4.57;;;0.70;;
56629;SDS011;42502;40.732;-74.254;2023-04-25T00:34:28;3.33;;;0.60;;
56629;SDS011;42502;40.732;-74.254;2023-04-25T00:36:29;7.63;;;0.70;;
56629;SDS011;42502;40.732;-74.254;2023-04-25T00:38:30;2.90;;;0.50;;
56629;SDS011;42502;40.732;-74.254;2023-04-25T00:40:31;3.30;;;0.55;;
56629;SDS011;42502;40.732;-74.254;2023-04-25T00:42:38;2.95;;;0.50;;
56629;SDS011;42502;40.732;-74.254;2023-04-25T00:44:43;6.10;;;0.40;;
56629;SDS011;42502;40.732;-74.254;2023-04-25T00:46:46;5.90;;;0.50;;
56629;SDS011;42502;40.732;-74.254;2023-04-25T00:48:49;5.40;;;0.50;;
56629;SDS011;42502;40.732;-74.254;2023-04-25T00:50:54;2.65;;;0.40;;
56629;SDS011;42502;40.732;-74.254;2023-04-25T00:52:57;5.43;;;0.40;;
56629;SDS011;42502;40.732;-74.254;2023-04-25T00:54:58;4.93;;;0.50;;
56629;SDS011;42502;40.732;-74.254;2023-04-25T00:57:02;6.53;;;0.50;;
56629;SDS011;42502;40.732;-74.254;2023-04-25T00:59:03;2.97;;;0.40;;
56629;SDS011;42502;40.732;-74.254;2023-04-25T01:01:04;3.75;;;0.35;;
56629;SDS011;42502;40.732;-74.254;2023-04-25T01:03:06;6.85;;;0.57;;
56629;SDS011;42502;40.732;-74.254;2023-04-25T01:05:07;4.35;;;0.40;;
56629;SDS011;42502;40.732;-74.254;2023-04-25T01:07:09;5.13;;;0.75;;
56629;SDS011;42502;40.732;-74.254;2023-04-25T01:09:10;1.00;;;0.50;;
56629;SDS011;42502;40.732;-74.254;2023-04-25T01:11:12;4.93;;;0.40;;
56629;SDS011;42502;40.732;-74.254;2023-04-25T01:13:13;3.35;;;0.28;;
56629;SDS011;42502;40.732;-74.254;2023-04-25T01:15:14;3.85;;;0.40;;
56629;SDS011;42502;40.732;-74.254;2023-04-25T01:17:16;2.00;;;0.50;;
56629;SDS011;42502;40.732;-74.254;2023-04-25T01:19:17;4.60;;;0.68;;
56629;SDS011;42502;40.732;-74.254;2023-04-25T01:21:19;6.43;;;0.70;;
56629;SDS011;42502;40.732;-74.254;2023-04-25T01:23:21;7.38;;;0.65;;
56629;SDS011;42502;40.732;-74.254;2023-04-25T01:25:22;2.95;;;0.50;;
56629;SDS011;42502;40.732;-74.254;2023-04-25T01:27:23;1.60;;;0.40;;
56629;SDS011;42502;40.732;-74.254;2023-04-25T01:29:26;4.03;;;0.40;;
56629;SDS011;42502;40.732;-74.254;2023-04-25T01:31:27;3.70;;;0.50;;
56629;SDS011;42502;40.732;-74.254;2023-04-25T01:33:29;3.35;;;0.40;;
56629;SDS011;42502;40.732;-74.254;2023-04-25T01:35:30;3.90;;;0.40;;
56629;SDS011;42502;40.732;-74.254;2023-04-25T01:37:31;4.57;;;0.35;;
56629;SDS011;42502;40.732;-74.254;2023-04-25T01:39:32;6.25;;;0.50;;
56629;SDS011;42502;40.732;-74.254;2023-04-25T01:41:33;2.30;;;0.40;;
56629;SDS011;42502;40.732;-74.254;2023-04-25T01:43:37;3.55;;;0.50;;
56629;SDS011;42502;40.732;-74.254;2023-04-25T01:45:38;4.97;;;0.43;;
56629;SDS011;42502;40.732;-74.254;2023-04-25T01:47:42;1.50;;;0.40;;
56629;SDS011;42502;40.732;-74.254;2023-04-25T01:49:43;4.35;;;0.38;;
56629;SDS011;42502;40.732;-74.254;2023-04-25T01:51:44;1.95;;;0.38;;
56629;SDS011;42502;40.732;-74.254;2023-04-25T01:53:45;3.47;;;0.50;;
56629;SDS011;42502;40.732;-74.254;2023-04-25T01:55:46;3.13;;;0.35;;
56629;SDS011;42502;40.732;-74.254;2023-04-25T01:57:47;3.20;;;0.35;;
56629;SDS011;42502;40.732;-74.254;2023-04-25T01:59:48;4.13;;;0.40;;
56629;SDS011;42502;40.732;-74.254;2023-04-25T02:01:50;6.03;;;0.40;;
56629;SDS011;42502;40.732;-74.254;2023-04-25T02:03:51;2.30;;;0.30;;
56629;SDS011;42502;40.732;-74.254;2023-04-25T02:05:51;2.65;;;0.30;;
56629;SDS011;42502;40.732;-74.254;2023-04-25T02:07:52;4.15;;;0.40;;
56629;SDS011;42502;40.732;-74.254;2023-04-25T02:09:53;2.17;;;0.43;;
56629;SDS011;42502;40.732;-74.254;2023-04-25T02:11:54;4.97;;;0.40;;
56629;SDS011;42502;40.732;-74.254;2023-04-25T02:13:55;1.17;;;0.35;;
56629;SDS011;42502;40.732;-74.254;2023-04-25T02:15:56;2.42;;;0.40;;
56629;SDS011;42502;40.732;-74.254;2023-04-25T02:18:00;5.65;;;0.80;;
56629;SDS011;42502;40.732;-74.254;2023-04-25T02:20:00;2.33;;;0.30;;
56629;SDS011;42502;40.732;-74.254;2023-04-25T02:22:01;4.93;;;0.40;;
56629;SDS011;42502;40.732;-74.254;2023-04-25T02:24:05;2.47;;;0.40;;
56629;SDS011;42502;40.732;-74.254;2023-04-25T02:26:06;3.78;;;0.40;;
56629;SDS011;42502;40.732;-74.254;2023-04-25T02:28:07;1.17;;;0.40;;
56629;SDS011;42502;40.732;-74.254;2023-04-25T02:30:08;4.97;;;0.35;;
56629;SDS011;42502;40.732;-74.254;2023-04-25T02:32:12;2.03;;;0.40;;
56629;SDS011;42502;40.732;-74.254;2023-04-25T02:34:13;4.45;;;0.40;;
56629;SDS011;42502;40.732;-74.254;2023-04-25T02:36:13;6.38;;;0.30;;
56629;SDS011;42502;40.732;-74.254;2023-04-25T02:38:15;4.05;;;0.47;;
56629;SDS011;42502;40.732;-74.254;2023-04-25T02:40:15;2.45;;;0.30;;
56629;SDS011;42502;40.732;-74.254;2023-04-25T02:42:19;1.65;;;0.40;;
56629;SDS011;42502;40.732;-74.254;2023-04-25T02:44:20;2.03;;;0.40;;
56629;SDS011;42502;40.732;-74.254;2023-04-25T02:46:21;3.42;;;0.40;;
56629;SDS011;42502;40.732;-74.254;2023-04-25T02:48:22;2.72;;;0.40;;
56629;SDS011;42502;40.732;-74.254;2023-04-25T02:50:23;2.80;;;0.30;;
56629;SDS011;42502;40.732;-74.254;2023-04-25T02:52:24;3.75;;;0.40;;
56629;SDS011;42502;40.732;-74.254;2023-04-25T02:54:27;2.97;;;0.73;;
56629;SDS011;42502;40.732;-74.254;2023-04-25T02:56:28;3.75;;;0.40;;
56629;SDS011;42502;40.732;-74.254;2023-04-25T02:58:29;2.05;;;0.30;;
56629;SDS011;42502;40.732;-74.254;2023-04-25T03:00:30;5.80;;;0.50;;
56629;SDS011;42502;40.732;-74.254;2023-04-25T03:02:31;7.68;;;0.60;;
56629;SDS011;42502;40.732;-74.254;2023-04-25T03:04:32;2.95;;;0.50;;
56629;SDS011;42502;40.732;-74.254;2023-04-25T03:06:33;1.55;;;0.35;;
56629;SDS011;42502;40.732;-74.254;2023-04-25T03:08:34;3.70;;;0.32;;
56629;SDS011;42502;40.732;-74.254;2023-04-25T03:10:35;4.97;;;0.40;;
56629;SDS011;42502;40.732;-74.254;2023-04-25T03:12:36;2.92;;;0.60;;
56629;SDS011;42502;40.732;-74.254;2023-04-25T03:14:37;3.95;;;0.40;;
56629;SDS011;42502;40.732;-74.254;2023-04-25T03:16:37;1.70;;;0.40;;
56629;SDS011;42502;40.732;-74.254;2023-04-25T03:18:39;3.03;;;0.60;;
56629;SDS011;42502;40.732;-74.254;2023-04-25T03:20:40;2.17;;;0.38;;
56629;SDS011;42502;40.732;-74.254;2023-04-25T03:22:44;3.17;;;0.50;;
56629;SDS011;42502;40.732;-74.254;2023-04-25T03:24:45;5.25;;;0.40;;
56629;SDS011;42502;40.732;-74.254;2023-04-25T03:26:45;1.60;;;0.40;;
56629;SDS011;42502;40.732;-74.254;2023-04-25T03:28:46;1.65;;;0.30;;
56629;SDS011;42502;40.732;-74.254;2023-04-25T03:30:47;3.47;;;0.60;;
56629;SDS011;42502;40.732;-74.254;2023-04-25T03:32:48;3.65;;;0.60;;
56629;SDS011;42502;40.732;-74.254;2023-04-25T03:34:49;1.90;;;0.40;;
56629;SDS011;42502;40.732;-74.254;2023-04-25T03:36:50;1.10;;;0.38;;
56629;SDS011;42502;40.732;-74.254;2023-04-25T03:38:51;1.13;;;0.43;;
56629;SDS011;42502;40.732;-74.254;2023-04-25T03:40:52;2.15;;;0.32;;
56629;SDS011;42502;40.732;-74.254;2023-04-25T03:42:53;0.70;;;0.30;;
56629;SDS011;42502;40.732;-74.254;2023-04-25T03:44:53;4.28;;;0.40;;
56629;SDS011;42502;40.732;-74.254;2023-04-25T03:46:54;2.22;;;0.32;;
56629;SDS011;42502;40.732;-74.254;2023-04-25T03:48:55;1.58;;;0.35;;
56629;SDS011;42502;40.732;-74.254;2023-04-25T03:50:56;2.00;;;0.30;;
56629;SDS011;42502;40.732;-74.254;2023-04-25T03:52:57;3.45;;;0.30;;
56629;SDS011;42502;40.732;-74.254;2023-04-25T03:54:58;2.47;;;0.40;;
56629;SDS011;42502;40.732;-74.254;2023-04-25T03:56:58;3.30;;;0.30;;
56629;SDS011;42502;40.732;-74.254;2023-04-25T03:59:00;0.80;;;0.30;;
56629;SDS011;42502;40.732;-74.254;2023-04-25T04:01:00;0.68;;;0.30;;
56629;SDS011;42502;40.732;-74.254;2023-04-25T04:03:07;2.13;;;0.40;;
56629;SDS011;42502;40.732;-74.254;2023-04-25T04:05:11;2.88;;;0.40;;
56629;SDS011;42502;40.732;-74.254;2023-04-25T04:07:12;2.60;;;0.38;;
56629;SDS011;42502;40.732;-74.254;2023-04-25T04:09:13;0.60;;;0.20;;
56629;SDS011;42502;40.732;-74.254;2023-04-25T04:11:14;1.30;;;0.30;;
56629;SDS011;42502;40.732;-74.254;2023-04-25T04:13:15;1.50;;;0.30;;
56629;SDS011;42502;40.732;-74.254;2023-04-25T04:15:15;0.88;;;0.30;;
56629;SDS011;42502;40.732;-74.254;2023-04-25T04:17:16;1.27;;;0.30;;
56629;SDS011;42502;40.732;-74.254;2023-04-25T04:19:20;2.17;;;0.30;;
56629;SDS011;42502;40.732;-74.254;2023-04-25T04:21:21;0.45;;;0.30;;
56629;SDS011;42502;40.732;-74.254;2023-04-25T04:23:21;1.10;;;0.20;;
56629;SDS011;42502;40.732;-74.254;2023-04-25T04:25:22;0.60;;;0.20;;
56629;SDS011;42502;40.732;-74.254;2023-04-25T04:27:24;0.20;;;0.20;;
56629;SDS011;42502;40.732;-74.254;2023-04-25T04:29:25;0.50;;;0.20;;
56629;SDS011;42502;40.732;-74.254;2023-04-25T04:31:26;0.30;;;0.20;;
56629;SDS011;42502;40.732;-74.254;2023-04-25T04:33:27;2.35;;;0.30;;
56629;SDS011;42502;40.732;-74.254;2023-04-25T04:35:28;1.10;;;0.20;;
56629;SDS011;42502;40.732;-74.254;2023-04-25T04:37:29;0.47;;;0.30;;
56629;SDS011;42502;40.732;-74.254;2023-04-25T04:39:30;0.93;;;0.30;;
56629;SDS011;42502;40.732;-74.254;2023-04-25T04:41:31;0.50;;;0.20;;
56629;SDS011;42502;40.732;-74.254;2023-04-25T04:43:32;1.88;;;0.30;;
56629;SDS011;42502;40.732;-74.254;2023-04-25T04:45:33;1.55;;;0.30;;
56629;SDS011;42502;40.732;-74.254;2023-04-25T04:47:34;1.02;;;0.28;;
56629;SDS011;42502;40.732;-74.254;2023-04-25T04:49:36;0.30;;;0.20;;
56629;SDS011;42502;40.732;-74.254;2023-04-25T04:51:44;0.55;;;0.20;;
56629;SDS011;42502;40.732;-74.254;2023-04-25T04:53:45;0.88;;;0.20;;
56629;SDS011;42502;40.732;-74.254;2023-04-25T04:55:46;0.57;;;0.20;;
56629;SDS011;42502;40.732;-74.254;2023-04-25T04:57:47;0.45;;;0.20;;
56629;SDS011;42502;40.732;-74.254;2023-04-25T04:59:48;0.40;;;0.20;;
56629;SDS011;42502;40.732;-74.254;2023-04-25T05:01:50;0.30;;;0.20;;
56629;SDS011;42502;40.732;-74.254;2023-04-25T05:03:51;0.88;;;0.30;;
56629;SDS011;42502;40.732;-74.254;2023-04-25T05:05:52;0.30;;;0.20;;
56629;SDS011;42502;40.732;-74.254;2023-04-25T05:07:53;1.55;;;0.30;;
56629;SDS011;42502;40.732;-74.254;2023-04-25T05:09:53;0.20;;;0.10;;
56629;SDS011;42502;40.732;-74.254;2023-04-25T05:11:54;0.30;;;0.20;;
56629;SDS011;42502;40.732;-74.254;2023-04-25T05:13:55;0.20;;;0.20;;
56629;SDS011;42502;40.732;-74.254;2023-04-25T05:15:56;0.70;;;0.20;;
56629;SDS011;42502;40.732;-74.254;2023-04-25T05:17:57;0.93;;;0.30;;
56629;SDS011;42502;40.732;-74.254;2023-04-25T05:19:58;0.32;;;0.20;;
56629;SDS011;42502;40.732;-74.254;2023-04-25T05:21:59;0.20;;;0.20;;
56629;SDS011;42502;40.732;-74.254;2023-04-25T05:24:00;0.20;;;0.20;;
56629;SDS011;42502;40.732;-74.254;2023-04-25T05:26:01;0.20;;;0.20;;
56629;SDS011;42502;40.732;-74.254;2023-04-25T05:28:02;0.20;;;0.20;;
56629;SDS011;42502;40.732;-74.254;2023-04-25T05:30:03;0.35;;;0.20;;
56629;SDS011;42502;40.732;-74.254;2023-04-25T05:32:08;0.20;;;0.20;;
56629;SDS011;42502;40.732;-74.254;2023-04-25T05:34:09;0.20;;;0.20;;
56629;SDS011;42502;40.732;-74.254;2023-04-25T05:36:10;0.20;;;0.10;;
56629;SDS011;42502;40.732;-74.254;2023-04-25T05:38:11;0.25;;;0.20;;
56629;SDS011;42502;40.732;-74.254;2023-04-25T05:40:11;0.40;;;0.15;;
56629;SDS011;42502;40.732;-74.254;2023-04-25T05:42:12;0.30;;;0.20;;
56629;SDS011;42502;40.732;-74.254;2023-04-25T05:44:16;0.20;;;0.20;;
56629;SDS011;42502;40.732;-74.254;2023-04-25T05:46:17;0.25;;;0.20;;
56629;SDS011;42502;40.732;-74.254;2023-04-25T05:48:20;0.52;;;0.13;;
56629;SDS011;42502;40.732;-74.254;2023-04-25T05:50:21;0.40;;;0.30;;
56629;SDS011;42502;40.732;-74.254;2023-04-25T05:52:22;0.10;;;0.10;;
56629;SDS011;42502;40.732;-74.254;2023-04-25T05:54:23;0.17;;;0.17;;
56629;SDS011;42502;40.732;-74.254;2023-04-25T05:56:24;0.35;;;0.20;;
56629;SDS011;42502;40.732;-74.254;2023-04-25T05:58:24;0.15;;;0.10;;
56629;SDS011;42502;40.732;-74.254;2023-04-25T06:00:25;0.30;;;0.20;;
56629;SDS011;42502;40.732;-74.254;2023-04-25T06:02:29;0.20;;;0.10;;
56629;SDS011;42502;40.732;-74.254;2023-04-25T06:04:30;0.30;;;0.20;;
56629;SDS011;42502;40.732;-74.254;2023-04-25T06:06:31;0.15;;;0.15;;
56629;SDS011;42502;40.732;-74.254;2023-04-25T06:08:32;0.82;;;0.30;;
56629;SDS011;42502;40.732;-74.254;2023-04-25T06:10:33;0.25;;;0.10;;
56629;SDS011;42502;40.732;-74.254;2023-04-25T06:12:33;0.28;;;0.20;;
56629;SDS011;42502;40.732;-74.254;2023-04-25T06:14:34;1.17;;;0.17;;
56629;SDS011;42502;40.732;-74.254;2023-04-25T06:16:35;0.20;;;0.20;;
56629;SDS011;42502;40.732;-74.254;2023-04-25T06:18:36;0.10;;;0.10;;
56629;SDS011;42502;40.732;-74.254;2023-04-25T06:20:37;0.20;;;0.20;;
56629;SDS011;42502;40.732;-74.254;2023-04-25T06:22:38;0.30;;;0.20;;
56629;SDS011;42502;40.732;-74.254;2023-04-25T06:24:41;1.20;;;0.20;;
56629;SDS011;42502;40.732;-74.254;2023-04-25T06:26:42;0.20;;;0.20;;
56629;SDS011;42502;40.732;-74.254;2023-04-25T06:28:43;0.20;;;0.20;;
56629;SDS011;42502;40.732;-74.254;2023-04-25T06:30:44;2.35;;;0.30;;
56629;SDS011;42502;40.732;-74.254;2023-04-25T06:32:45;0.20;;;0.20;;
56629;SDS011;42502;40.732;-74.254;2023-04-25T06:34:46;0.20;;;0.20;;
56629;SDS011;42502;40.732;-74.254;2023-04-25T06:36:47;0.20;;;0.20;;
56629;SDS011;42502;40.732;-74.254;2023-04-25T06:38:48;0.20;;;0.17;;
56629;SDS011;42502;40.732;-74.254;2023-04-25T06:40:52;0.50;;;0.20;;
56629;SDS011;42502;40.732;-74.254;2023-04-25T06:42:53;0.20;;;0.20;;
56629;SDS011;42502;40.732;-74.254;2023-04-25T06:44:54;0.25;;;0.25;;
56629;SDS011;42502;40.732;-74.254;2023-04-25T06:46:55;0.52;;;0.13;;
56629;SDS011;42502;40.732;-74.254;2023-04-25T06:48:56;0.20;;;0.20;;
56629;SDS011;42502;40.732;-74.254;2023-04-25T06:50:57;0.17;;;0.17;;
56629;SDS011;42502;40.732;-74.254;2023-04-25T06:52:58;0.40;;;0.15;;
56629;SDS011;42502;40.732;-74.254;2023-04-25T06:54:59;0.28;;;0.20;;
56629;SDS011;42502;40.732;-74.254;2023-04-25T06:57:00;0.40;;;0.20;;
56629;SDS011;42502;40.732;-74.254;2023-04-25T06:59:01;0.30;;;0.20;;
56629;SDS011;42502;40.732;-74.254;2023-04-25T07:01:02;0.40;;;0.20;;
56629;SDS011;42502;40.732;-74.254;2023-04-25T07:03:06;0.20;;;0.20;;
56629;SDS011;42502;40.732;-74.254;2023-04-25T07:05:07;0.20;;;0.20;;
56629;SDS011;42502;40.732;-74.254;2023-04-25T07:07:11;0.30;;;0.20;;
56629;SDS011;42502;40.732;-74.254;2023-04-25T07:09:12;0.20;;;0.20;;
56629;SDS011;42502;40.732;-74.254;2023-04-25T07:11:12;0.20;;;0.10;;
56629;SDS011;42502;40.732;-74.254;2023-04-25T07:13:13;0.20;;;0.20;;
56629;SDS011;42502;40.732;-74.254;2023-04-25T07:15:14;0.40;;;0.20;;
56629;SDS011;42502;40.732;-74.254;2023-04-25T07:17:15;0.20;;;0.20;;
56629;SDS011;42502;40.732;-74.254;2023-04-25T07:19:19;0.10;;;0.10;;
56629;SDS011;42502;40.732;-74.254;2023-04-25T07:21:20;0.20;;;0.15;;
56629;SDS011;42502;40.732;-74.254;2023-04-25T07:23:21;0.20;;;0.20;;
56629;SDS011;42502;40.732;-74.254;2023-04-25T07:25:24;0.90;;;0.10;;
56629;SDS011;42502;40.732;-74.254;2023-04-25T07:27:25;0.20;;;0.20;;
56629;SDS011;42502;40.732;-74.254;2023-04-25T07:29:26;0.30;;;0.20;;
56629;SDS011;42502;40.732;-74.254;2023-04-25T07:31:28;0.20;;;0.10;;
56629;SDS011;42502;40.732;-74.254;2023-04-25T07:33:29;0.10;;;0.10;;
56629;SDS011;42502;40.732;-74.254;2023-04-25T07:35:30;0.52;;;0.20;;
56629;SDS011;42502;40.732;-74.254;2023-04-25T07:37:30;0.30;;;0.20;;
56629;SDS011;42502;40.732;-74.254;2023-04-25T07:39:32;0.10;;;0.10;;
56629;SDS011;42502;40.732;-74.254;2023-04-25T07:41:37;0.10;;;0.10;;
56629;SDS011;42502;40.732;-74.254;2023-04-25T07:43:37;0.20;;;0.20;;
56629;SDS011;42502;40.732;-74.254;2023-04-25T07:45:38;1.27;;;0.20;;
56629;SDS011;42502;40.732;-74.254;2023-04-25T07:47:39;0.17;;;0.15;;
56629;SDS011;42502;40.732;-74.254;2023-04-25T07:49:40;0.35;;;0.20;;
56629;SDS011;42502;40.732;-74.254;2023-04-25T07:51:41;0.20;;;0.20;;
56629;SDS011;42502;40.732;-74.254;2023-04-25T07:53:43;0.20;;;0.20;;
56629;SDS011;42502;40.732;-74.254;2023-04-25T07:55:44;0.17;;;0.10;;
56629;SDS011;42502;40.732;-74.254;2023-04-25T07:57:45;0.10;;;0.10;;
56629;SDS011;42502;40.732;-74.254;2023-04-25T07:59:46;0.20;;;0.20;;
56629;SDS011;42502;40.732;-74.254;2023-04-25T08:01:47;0.25;;;0.20;;
56629;SDS011;42502;40.732;-74.254;2023-04-25T08:03:48;0.30;;;0.20;;
56629;SDS011;42502;40.732;-74.254;2023-04-25T08:05:48;0.20;;;0.20;;
56629;SDS011;42502;40.732;-74.254;2023-04-25T08:07:49;0.13;;;0.10;;
56629;SDS011;42502;40.732;-74.254;2023-04-25T08:09:50;0.65;;;0.20;;
56629;SDS011;42502;40.732;-74.254;2023-04-25T08:11:51;0.20;;;0.20;;
56629;SDS011;42502;40.732;-74.254;2023-04-25T08:13:52;0.30;;;0.17;;
56629;SDS011;42502;40.732;-74.254;2023-04-25T08:15:53;0.20;;;0.20;;
56629;SDS011;42502;40.732;-74.254;2023-04-25T08:17:54;0.20;;;0.20;;
56629;SDS011;42502;40.732;-74.254;2023-04-25T08:19:55;0.20;;;0.20;;
56629;SDS011;42502;40.732;-74.254;2023-04-25T08:21:57;0.35;;;0.20;;
56629;SDS011;42502;40.732;-74.254;2023-04-25T08:23:58;0.20;;;0.20;;
56629;SDS011;42502;40.732;-74.254;2023-04-25T08:25:58;1.27;;;0.20;;
56629;SDS011;42502;40.732;-74.254;2023-04-25T08:27:59;0.20;;;0.20;;
56629;SDS011;42502;40.732;-74.254;2023-04-25T08:30:03;0.30;;;0.20;;
56629;SDS011;42502;40.732;-74.254;2023-04-25T08:32:04;0.20;;;0.20;;
56629;SDS011;42502;40.732;-74.254;2023-04-25T08:34:05;0.20;;;0.20;;
56629;SDS011;42502;40.732;-74.254;2023-04-25T08:36:06;0.20;;;0.20;;
56629;SDS011;42502;40.732;-74.254;2023-04-25T08:38:09;0.50;;;0.20;;
56629;SDS011;42502;40.732;-74.254;2023-04-25T08:40:11;0.20;;;0.20;;
56629;SDS011;42502;40.732;-74.254;2023-04-25T08:42:14;0.10;;;0.10;;
56629;SDS011;42502;40.732;-74.254;2023-04-25T08:44:16;0.30;;;0.30;;
56629;SDS011;42502;40.732;-74.254;2023-04-25T08:46:17;0.10;;;0.10;;
56629;SDS011;42502;40.732;-74.254;2023-04-25T08:48:19;0.10;;;0.10;;
56629;SDS011;42502;40.732;-74.254;2023-04-25T08:50:22;0.10;;;0.10;;
56629;SDS011;42502;40.732;-74.254;2023-04-25T08:52:23;0.10;;;0.10;;
56629;SDS011;42502;40.732;-74.254;2023-04-25T08:54:28;0.50;;;0.20;;
56629;SDS011;42502;40.732;-74.254;2023-04-25T08:56:31;0.20;;;0.10;;
56629;SDS011;42502;40.732;-74.254;2023-04-25T08:58:35;0.10;;;0.10;;
56629;SDS011;42502;40.732;-74.254;2023-04-25T09:00:37;0.10;;;0.10;;
56629;SDS011;42502;40.732;-74.254;2023-04-25T09:02:38;0.17;;;0.17;;
56629;SDS011;42502;40.732;-74.254;2023-04-25T09:04:40;0.17;;;0.17;;
56629;SDS011;42502;40.732;-74.254;2023-04-25T09:06:43;0.20;;;0.20;;
56629;SDS011;42502;40.732;-74.254;2023-04-25T09:08:44;0.20;;;0.10;;
56629;SDS011;42502;40.732;-74.254;2023-04-25T09:10:44;0.10;;;0.10;;
56629;SDS011;42502;40.732;-74.254;2023-04-25T09:13:01;0.45;;;0.10;;
56629;SDS011;42502;40.732;-74.254;2023-04-25T09:15:07;0.20;;;0.20;;
56629;SDS011;42502;40.732;-74.254;2023-04-25T09:17:10;0.10;;;0.10;;
56629;SDS011;42502;40.732;-74.254;2023-04-25T09:19:20;0.22;;;0.20;;
56629;SDS011;42502;40.732;-74.254;2023-04-25T09:21:22;0.20;;;0.20;;
56629;SDS011;42502;40.732;-74.254;2023-04-25T09:23:23;0.20;;;0.20;;
56629;SDS011;42502;40.732;-74.254;2023-04-25T09:25:24;0.60;;;0.20;;
56629;SDS011;42502;40.732;-74.254;2023-04-25T09:27:25;0.17;;;0.17;;
56629;SDS011;42502;40.732;-74.254;2023-04-25T09:29:30;0.20;;;0.20;;
56629;SDS011;42502;40.732;-74.254;2023-04-25T09:31:35;0.20;;;0.20;;
56629;SDS011;42502;40.732;-74.254;2023-04-25T09:33:40;0.10;;;0.10;;
56629;SDS011;42502;40.732;-74.254;2023-04-25T09:35:42;0.20;;;0.20;;
56629;SDS011;42502;40.732;-74.254;2023-04-25T09:37:44;0.30;;;0.20;;
56629;SDS011;42502;40.732;-74.254;2023-04-25T09:39:47;0.50;;;0.20;;
56629;SDS011;42502;40.732;-74.254;2023-04-25T09:41:59;0.25;;;0.20;;
56629;SDS011;42502;40.732;-74.254;2023-04-25T09:44:00;0.20;;;0.20;;
56629;SDS011;42502;40.732;-74.254;2023-04-25T09:46:01;0.10;;;0.10;;
56629;SDS011;42502;40.732;-74.254;2023-04-25T09:48:04;0.20;;;0.20;;
56629;SDS011;42502;40.732;-74.254;2023-04-25T09:50:16;0.22;;;0.22;;
56629;SDS011;42502;40.732;-74.254;2023-04-25T09:52:20;0.10;;;0.10;;
56629;SDS011;42502;40.732;-74.254;2023-04-25T09:54:24;0.20;;;0.20;;
56629;SDS011;42502;40.732;-74.254;2023-04-25T09:56:26;0.20;;;0.20;;
56629;SDS011;42502;40.732;-74.254;2023-04-25T09:58:38;0.10;;;0.10;;
56629;SDS011;42502;40.732;-74.254;2023-04-25T10:00:40;0.20;;;0.20;;
56629;SDS011;42502;40.732;-74.254;2023-04-25T10:02:42;0.20;;;0.20;;
56629;SDS011;42502;40.732;-74.254;2023-04-25T10:04:51;0.10;;;0.10;;
56629;SDS011;42502;40.732;-74.254;2023-04-25T10:06:54;0.10;;;0.10;;
56629;SDS011;42502;40.732;-74.254;2023-04-25T10:08:56;0.20;;;0.20;;
56629;SDS011;42502;40.732;-74.254;2023-04-25T10:11:02;0.30;;;0.13;;
56629;SDS011;42502;40.732;-74.254;2023-04-25T10:13:07;0.10;;;0.10;;
56629;SDS011;42502;40.732;-74.254;2023-04-25T10:15:09;0.20;;;0.20;;
56629;SDS011;42502;40.732;-74.254;2023-04-25T10:17:14;0.53;;;0.20;;
56629;SDS011;42502;40.732;-74.254;2023-04-25T10:19:15;0.10;;;0.10;;
56629;SDS011;42502;40.732;-74.254;2023-04-25T10:21:16;0.20;;;0.20;;
56629;SDS011;42502;40.732;-74.254;2023-04-25T10:23:18;0.20;;;0.20;;
56629;SDS011;42502;40.732;-74.254;2023-04-25T10:25:20;0.30;;;0.20;;
56629;SDS011;42502;40.732;-74.254;2023-04-25T10:27:22;0.30;;;0.15;;
56629;SDS011;42502;40.732;-74.254;2023-04-25T10:29:29;0.73;;;0.17;;
56629;SDS011;42502;40.732;-74.254;2023-04-25T10:31:30;0.38;;;0.20;;
56629;SDS011;42502;40.732;-74.254;2023-04-25T10:33:32;0.40;;;0.20;;
56629;SDS011;42502;40.732;-74.254;2023-04-25T10:35:35;0.10;;;0.10;;
56629;SDS011;42502;40.732;-74.254;2023-04-25T10:40:09;0.30;;;0.20;;
56629;SDS011;42502;40.732;-74.254;2023-04-25T10:42:10;0.38;;;0.10;;
56629;SDS011;42502;40.732;-74.254;2023-04-25T10:44:12;0.40;;;0.20;;
56629;SDS011;42502;40.732;-74.254;2023-04-25T10:48:26;1.00;;;0.30;;
56629;SDS011;42502;40.732;-74.254;2023-04-25T10:50:36;0.55;;;0.20;;
56629;SDS011;42502;40.732;-74.254;2023-04-25T10:52:39;0.20;;;0.20;;
56629;SDS011;42502;40.732;-74.254;2023-04-25T10:55:02;0.43;;;0.10;;
56629;SDS011;42502;40.732;-74.254;2023-04-25T10:57:06;1.60;;;0.20;;
56629;SDS011;42502;40.732;-74.254;2023-04-25T10:59:08;1.45;;;0.40;;
56629;SDS011;42502;40.732;-74.254;2023-04-25T11:01:15;1.85;;;0.20;;
56629;SDS011;42502;40.732;-74.254;2023-04-25T11:03:21;1.88;;;0.28;;
56629;SDS011;42502;40.732;-74.254;2023-04-25T11:05:32;1.20;;;0.20;;
56629;SDS011;42502;40.732;-74.254;2023-04-25T11:07:42;1.27;;;0.20;;
56629;SDS011;42502;40.732;-74.254;2023-04-25T11:09:50;4.85;;;0.20;;
56629;SDS011;42502;40.732;-74.254;2023-04-25T11:11:54;0.32;;;0.20;;
56629;SDS011;42502;40.732;-74.254;2023-04-25T11:13:58;1.75;;;0.20;;
56629;SDS011;42502;40.732;-74.254;2023-04-25T11:15:59;0.77;;;0.20;;
56629;SDS011;42502;40.732;-74.254;2023-04-25T11:18:00;4.47;;;0.20;;
56629;SDS011;42502;40.732;-74.254;2023-04-25T11:20:03;0.30;;;0.20;;
56629;SDS011;42502;40.732;-74.254;2023-04-25T11:22:09;0.77;;;0.28;;
56629;SDS011;42502;40.732;-74.254;2023-04-25T11:24:10;1.77;;;0.22;;
56629;SDS011;42502;40.732;-74.254;2023-04-25T11:26:12;3.03;;;0.20;;
56629;SDS011;42502;40.732;-74.254;2023-04-25T11:28:20;1.50;;;0.40;;
56629;SDS011;42502;40.732;-74.254;2023-04-25T11:30:25;1.15;;;0.20;;
56629;SDS011;42502;40.732;-74.254;2023-04-25T11:32:26;1.23;;;0.20;;
56629;SDS011;42502;40.732;-74.254;2023-04-25T11:34:30;1.95;;;0.30;;
56629;SDS011;42502;40.732;-74.254;2023-04-25T11:36:32;1.08;;;0.30;;
56629;SDS011;42502;40.732;-74.254;2023-04-25T11:38:33;0.88;;;0.30;;
56629;SDS011;42502;40.732;-74.254;2023-04-25T11:40:40;0.32;;;0.20;;
56629;SDS011;42502;40.732;-74.254;2023-04-25T11:42:44;0.25;;;0.20;;
56629;SDS011;42502;40.732;-74.254;2023-04-25T11:44:46;1.67;;;0.20;;
56629;SDS011;42502;40.732;-74.254;2023-04-25T11:46:47;2.88;;;0.30;;
56629;SDS011;42502;40.732;-74.254;2023-04-25T11:48:49;2.60;;;0.30;;
56629;SDS011;42502;40.732;-74.254;2023-04-25T11:50:50;1.35;;;0.30;;
56629;SDS011;42502;40.732;-74.254;2023-04-25T11:52:51;0.73;;;0.35;;
56629;SDS011;42502;40.732;-74.254;2023-04-25T11:55:13;1.70;;;0.20;;
56629;SDS011;42502;40.732;-74.254;2023-04-25T11:57:21;0.57;;;0.17;;